createdAt,value
2018-05-07T00:00:36.575Z,969.42
2018-05-07T00:01:36.572Z,969.46
2018-05-07T00:02:36.569Z,969.44
2018-05-07T00:03:36.575Z,969.45
2018-05-07T00:04:36.566Z,969.41
2018-05-07T00:05:36.567Z,969.37
2018-05-07T00:06:36.588Z,969.40
2018-05-07T00:07:36.603Z,969.40
2018-05-07T00:08:36.560Z,969.42
2018-05-07T00:09:36.589Z,969.43
2018-05-07T00:10:36.593Z,969.46
2018-05-07T00:11:36.611Z,969.44
2018-05-07T00:12:36.565Z,969.42
2018-05-07T00:13:36.552Z,969.43
2018-05-07T00:14:36.551Z,969.44
2018-05-07T00:15:36.581Z,969.39
2018-05-07T00:16:36.543Z,969.40
2018-05-07T00:17:36.544Z,969.39
2018-05-07T00:18:36.540Z,969.35
2018-05-07T00:19:36.543Z,969.38
2018-05-07T00:20:36.546Z,969.38
2018-05-07T00:21:36.537Z,969.35
2018-05-07T00:22:36.571Z,969.38
2018-05-07T00:23:36.532Z,969.36
2018-05-07T00:24:36.531Z,969.34
2018-05-07T00:25:36.534Z,969.32
2018-05-07T00:26:36.554Z,969.29
2018-05-07T00:27:36.522Z,969.33
2018-05-07T00:28:36.620Z,969.28
2018-05-07T00:29:36.521Z,969.25
2018-05-07T00:30:36.519Z,969.27
2018-05-07T00:31:36.528Z,969.28
2018-05-07T00:32:36.515Z,969.26
2018-05-07T00:33:36.515Z,969.24
2018-05-07T00:34:36.511Z,969.24
2018-05-07T00:35:36.517Z,969.24
2018-05-07T00:36:36.509Z,969.21
2018-05-07T00:37:36.507Z,969.22
2018-05-07T00:38:36.504Z,969.23
2018-05-07T00:39:36.501Z,969.22
2018-05-07T00:40:36.499Z,969.22
2018-05-07T00:41:36.499Z,969.21
2018-05-07T00:42:36.495Z,969.24
2018-05-07T00:43:36.493Z,969.20
2018-05-07T00:44:36.497Z,969.24
2018-05-07T00:45:36.493Z,969.26
2018-05-07T00:46:36.499Z,969.25
2018-05-07T00:47:36.486Z,969.23
2018-05-07T00:48:36.484Z,969.22
2018-05-07T00:49:36.486Z,969.23
2018-05-07T00:50:36.483Z,969.26
2018-05-07T00:51:36.480Z,969.25
2018-05-07T00:52:36.478Z,969.29
2018-05-07T00:53:36.479Z,969.27
2018-05-07T00:54:36.472Z,969.23
2018-05-07T00:55:36.469Z,969.27
2018-05-07T00:56:36.468Z,969.24
2018-05-07T00:57:36.466Z,969.26
2018-05-07T00:58:36.464Z,969.24
2018-05-07T00:59:36.461Z,969.25
2018-05-07T01:00:36.459Z,969.26
2018-05-07T01:01:36.455Z,969.26
2018-05-07T01:02:36.454Z,969.24
2018-05-07T01:03:36.452Z,969.24
2018-05-07T01:04:36.450Z,969.24
2018-05-07T01:05:36.452Z,969.27
2018-05-07T01:06:36.449Z,969.25
2018-05-07T01:07:36.443Z,969.29
2018-05-07T01:08:36.440Z,969.28
2018-05-07T01:09:36.440Z,969.31
2018-05-07T01:10:36.438Z,969.31
2018-05-07T01:11:36.435Z,969.31
2018-05-07T01:12:36.432Z,969.27
2018-05-07T01:13:36.433Z,969.28
2018-05-07T01:14:36.428Z,969.29
2018-05-07T01:15:36.426Z,969.28
2018-05-07T01:16:36.424Z,969.28
2018-05-07T01:17:36.421Z,969.30
2018-05-07T01:18:36.419Z,969.28
2018-05-07T01:19:36.417Z,969.24
2018-05-07T01:20:36.415Z,969.27
2018-05-07T01:21:36.414Z,969.26
2018-05-07T01:22:36.410Z,969.24
2018-05-07T01:23:36.408Z,969.26
2018-05-07T01:24:36.406Z,969.29
2018-05-07T01:25:36.403Z,969.28
2018-05-07T01:26:36.404Z,969.26
2018-05-07T01:27:36.399Z,969.28
2018-05-07T01:28:36.398Z,969.25
2018-05-07T01:29:36.397Z,969.28
2018-05-07T01:30:36.392Z,969.29
2018-05-07T01:31:36.390Z,969.29
2018-05-07T01:32:36.387Z,969.29
2018-05-07T01:33:36.386Z,969.26
2018-05-07T01:34:36.384Z,969.31
2018-05-07T01:35:36.379Z,969.32
2018-05-07T01:36:36.385Z,969.27
2018-05-07T01:37:36.380Z,969.31
2018-05-07T01:38:36.375Z,969.29
2018-05-07T01:39:36.372Z,969.30
2018-05-07T01:40:36.370Z,969.30
2018-05-07T01:41:36.368Z,969.28
2018-05-07T01:42:36.364Z,969.32
2018-05-07T01:43:36.362Z,969.29
2018-05-07T01:44:36.363Z,969.32
2018-05-07T01:45:36.359Z,969.32
2018-05-07T01:46:36.351Z,969.31
2018-05-07T01:47:36.353Z,969.30
2018-05-07T01:48:36.352Z,969.28
2018-05-07T01:49:36.349Z,969.27
2018-05-07T01:50:36.345Z,969.32
2018-05-07T01:51:36.344Z,969.29
2018-05-07T01:52:36.342Z,969.31
2018-05-07T01:53:36.340Z,969.26
2018-05-07T01:54:36.338Z,969.24
2018-05-07T01:55:36.337Z,969.22
2018-05-07T01:56:36.331Z,969.22
2018-05-07T01:57:36.329Z,969.24
2018-05-07T01:58:36.325Z,969.21
2018-05-07T01:59:36.324Z,969.21
2018-05-07T02:00:36.322Z,969.22
2018-05-07T02:01:36.319Z,969.21
2018-05-07T02:02:36.316Z,969.18
2018-05-07T02:03:36.313Z,969.18
2018-05-07T02:04:36.312Z,969.22
2018-05-07T02:05:36.310Z,969.22
2018-05-07T02:06:36.306Z,969.19
2018-05-07T02:07:36.304Z,969.24
2018-05-07T02:08:36.302Z,969.20
2018-05-07T02:09:39.001Z,969.24
2018-05-07T02:10:36.334Z,969.25
2018-05-07T02:11:36.296Z,969.25
2018-05-07T02:12:36.293Z,969.28
2018-05-07T02:13:36.293Z,969.27
2018-05-07T02:14:36.286Z,969.29
2018-05-07T02:15:36.290Z,969.23
2018-05-07T02:16:36.283Z,969.26
2018-05-07T02:17:36.282Z,969.28
2018-05-07T02:18:36.277Z,969.19
2018-05-07T02:19:36.275Z,969.26
2018-05-07T02:20:36.274Z,969.25
2018-05-07T02:21:36.270Z,969.24
2018-05-07T02:22:36.267Z,969.25
2018-05-07T02:23:36.263Z,969.18
2018-05-07T02:24:36.263Z,969.19
2018-05-07T02:25:36.260Z,969.17
2018-05-07T02:26:36.255Z,969.19
2018-05-07T02:27:36.253Z,969.23
2018-05-07T02:28:36.252Z,969.19
2018-05-07T02:29:36.249Z,969.18
2018-05-07T02:30:36.246Z,969.16
2018-05-07T02:31:36.243Z,969.17
2018-05-07T02:32:36.300Z,969.18
2018-05-07T02:33:36.238Z,969.19
2018-05-07T02:34:36.235Z,969.14
2018-05-07T02:35:36.232Z,969.11
2018-05-07T02:36:36.230Z,969.09
2018-05-07T02:37:36.227Z,969.13
2018-05-07T02:38:36.223Z,969.14
2018-05-07T02:39:36.228Z,969.14
2018-05-07T02:40:36.219Z,969.06
2018-05-07T02:41:36.215Z,969.09
2018-05-07T02:42:36.211Z,969.09
2018-05-07T02:43:36.210Z,969.09
2018-05-07T02:44:36.207Z,969.11
2018-05-07T02:45:36.204Z,969.14
2018-05-07T02:46:36.200Z,969.11
2018-05-07T02:47:36.202Z,969.10
2018-05-07T02:48:36.196Z,969.11
2018-05-07T02:49:36.945Z,969.06
2018-05-07T02:50:36.188Z,969.05
2018-05-07T02:51:36.188Z,969.04
2018-05-07T02:52:36.186Z,969.08
2018-05-07T02:53:36.180Z,969.06
2018-05-07T02:54:36.178Z,969.04
2018-05-07T02:55:36.176Z,969.09
2018-05-07T02:56:36.176Z,969.07
2018-05-07T02:57:36.172Z,969.09
2018-05-07T02:58:36.169Z,969.08
2018-05-07T02:59:36.166Z,969.05
2018-05-07T03:00:36.161Z,969.04
2018-05-07T03:01:36.160Z,969.07
2018-05-07T03:02:36.153Z,969.01
2018-05-07T03:03:36.153Z,969.05
2018-05-07T03:04:36.151Z,969.05
2018-05-07T03:05:36.147Z,969.04
2018-05-07T03:06:36.146Z,969.02
2018-05-07T03:07:36.948Z,968.97
2018-05-07T03:08:36.140Z,969.02
2018-05-07T03:09:36.137Z,969.03
2018-05-07T03:10:36.134Z,969.01
2018-05-07T03:11:36.129Z,968.98
2018-05-07T03:12:36.128Z,968.99
2018-05-07T03:13:36.124Z,968.97
2018-05-07T03:14:36.119Z,968.97
2018-05-07T03:15:36.117Z,968.99
2018-05-07T03:16:36.114Z,968.98
2018-05-07T03:17:36.114Z,968.93
2018-05-07T03:18:36.108Z,968.94
2018-05-07T03:19:36.105Z,968.88
2018-05-07T03:20:36.102Z,968.91
2018-05-07T03:21:36.100Z,968.86
2018-05-07T03:22:36.095Z,968.84
2018-05-07T03:23:36.094Z,968.89
2018-05-07T03:24:36.089Z,968.84
2018-05-07T03:25:36.099Z,968.86
2018-05-07T03:26:36.084Z,968.83
2018-05-07T03:27:36.086Z,968.81
2018-05-07T03:28:36.079Z,968.84
2018-05-07T03:29:36.075Z,968.82
2018-05-07T03:30:36.071Z,968.82
2018-05-07T03:31:36.070Z,968.78
2018-05-07T03:32:36.065Z,968.78
2018-05-07T03:33:36.064Z,968.82
2018-05-07T03:34:36.059Z,968.79
2018-05-07T03:35:36.056Z,968.77
2018-05-07T03:36:36.053Z,968.75
2018-05-07T03:37:36.056Z,968.75
2018-05-07T03:38:36.046Z,968.73
2018-05-07T03:39:36.049Z,968.71
2018-05-07T03:40:36.141Z,968.71
2018-05-07T03:41:36.038Z,968.67
2018-05-07T03:42:36.035Z,968.65
2018-05-07T03:43:36.032Z,968.66
2018-05-07T03:44:36.028Z,968.69
2018-05-07T03:45:36.025Z,968.65
2018-05-07T03:46:36.022Z,968.70
2018-05-07T03:47:36.019Z,968.66
2018-05-07T03:48:36.073Z,968.62
2018-05-07T03:49:36.013Z,968.66
2018-05-07T03:50:36.010Z,968.67
2018-05-07T03:51:36.011Z,968.67
2018-05-07T03:52:36.002Z,968.66
2018-05-07T03:53:36.004Z,968.67
2018-05-07T03:54:35.998Z,968.67
2018-05-07T03:55:35.994Z,968.61
2018-05-07T03:56:35.991Z,968.63
2018-05-07T03:57:36.005Z,968.61
2018-05-07T03:58:35.984Z,968.62
2018-05-07T03:59:35.988Z,968.64
2018-05-07T04:00:35.979Z,968.63
2018-05-07T04:01:35.978Z,968.62
2018-05-07T04:02:35.969Z,968.54
2018-05-07T04:03:35.969Z,968.56
2018-05-07T04:04:35.966Z,968.54
2018-05-07T04:05:36.450Z,968.54
2018-05-07T04:06:36.450Z,968.58
2018-05-07T04:07:35.956Z,968.63
2018-05-07T04:08:35.952Z,968.66
2018-05-07T04:09:35.951Z,968.65
2018-05-07T04:10:35.945Z,968.65
2018-05-07T04:11:35.944Z,968.67
2018-05-07T04:12:35.941Z,968.66
2018-05-07T04:13:35.940Z,968.67
2018-05-07T04:14:35.933Z,968.63
2018-05-07T04:15:35.930Z,968.65
2018-05-07T04:16:35.926Z,968.68
2018-05-07T04:17:35.925Z,968.65
2018-05-07T04:18:35.920Z,968.64
2018-05-07T04:19:35.919Z,968.64
2018-05-07T04:20:35.916Z,968.63
2018-05-07T04:21:35.911Z,968.61
2018-05-07T04:22:35.907Z,968.64
2018-05-07T04:23:35.995Z,968.67
2018-05-07T04:24:35.904Z,968.64
2018-05-07T04:25:35.899Z,968.65
2018-05-07T04:26:35.895Z,968.67
2018-05-07T04:27:35.899Z,968.74
2018-05-07T04:28:35.954Z,968.70
2018-05-07T04:29:35.899Z,968.68
2018-05-07T04:30:35.920Z,968.67
2018-05-07T04:31:35.884Z,968.70
2018-05-07T04:32:36.510Z,968.72
2018-05-07T04:33:35.922Z,968.71
2018-05-07T04:34:35.872Z,968.68
2018-05-07T04:35:35.954Z,968.72
2018-05-07T04:36:35.891Z,968.69
2018-05-07T04:37:35.861Z,968.69
2018-05-07T04:38:35.857Z,968.72
2018-05-07T04:39:35.857Z,968.66
2018-05-07T04:40:35.853Z,968.71
2018-05-07T04:41:35.851Z,968.73
2018-05-07T04:42:35.845Z,968.70
2018-05-07T04:43:35.863Z,968.73
2018-05-07T04:44:35.839Z,968.76
2018-05-07T04:45:35.840Z,968.75
2018-05-07T04:46:35.850Z,968.76
2018-05-07T04:47:35.832Z,968.73
2018-05-07T04:48:35.924Z,968.76
2018-05-07T04:49:35.826Z,968.76
2018-05-07T04:50:35.821Z,968.75
2018-05-07T04:51:35.818Z,968.75
2018-05-07T04:52:35.819Z,968.68
2018-05-07T04:53:35.813Z,968.72
2018-05-07T04:54:35.809Z,968.72
2018-05-07T04:55:35.809Z,968.77
2018-05-07T04:56:35.805Z,968.77
2018-05-07T04:57:35.823Z,968.73
2018-05-07T04:58:35.808Z,968.74
2018-05-07T04:59:35.823Z,968.74
2018-05-07T05:00:35.818Z,968.76
2018-05-07T05:01:35.794Z,968.72
2018-05-07T05:02:35.789Z,968.74
2018-05-07T05:03:35.785Z,968.72
2018-05-07T05:04:35.783Z,968.73
2018-05-07T05:05:35.781Z,968.70
2018-05-07T05:06:35.778Z,968.68
2018-05-07T05:07:35.775Z,968.74
2018-05-07T05:08:35.774Z,968.69
2018-05-07T05:09:35.770Z,968.70
2018-05-07T05:10:35.770Z,968.74
2018-05-07T05:11:35.764Z,968.69
2018-05-07T05:12:35.763Z,968.69
2018-05-07T05:13:35.761Z,968.70
2018-05-07T05:14:35.757Z,968.73
2018-05-07T05:15:35.756Z,968.71
2018-05-07T05:16:36.461Z,968.74
2018-05-07T05:17:35.751Z,968.73
2018-05-07T05:18:35.748Z,968.74
2018-05-07T05:19:35.751Z,968.74
2018-05-07T05:20:35.743Z,968.76
2018-05-07T05:21:35.745Z,968.79
2018-05-07T05:22:35.739Z,968.78
2018-05-07T05:23:35.736Z,968.77
2018-05-07T05:24:35.735Z,968.77
2018-05-07T05:25:35.732Z,968.75
2018-05-07T05:26:35.732Z,968.80
2018-05-07T05:27:35.728Z,968.78
2018-05-07T05:28:35.727Z,968.77
2018-05-07T05:29:35.724Z,968.81
2018-05-07T05:30:35.725Z,968.80
2018-05-07T05:31:36.457Z,968.76
2018-05-07T05:32:35.720Z,968.77
2018-05-07T05:33:35.717Z,968.81
2018-05-07T05:34:35.714Z,968.76
2018-05-07T05:35:35.712Z,968.74
2018-05-07T05:36:35.714Z,968.76
2018-05-07T05:37:35.709Z,968.76
2018-05-07T05:38:35.706Z,968.76
2018-05-07T05:39:35.706Z,968.73
2018-05-07T05:40:35.703Z,968.78
2018-05-07T05:41:35.701Z,968.78
2018-05-07T05:42:35.703Z,968.74
2018-05-07T05:43:35.765Z,968.78
2018-05-07T05:44:35.698Z,968.76
2018-05-07T05:45:35.695Z,968.78
2018-05-07T05:46:35.693Z,968.81
2018-05-07T05:47:35.692Z,968.81
2018-05-07T05:48:35.692Z,968.76
2018-05-07T05:49:35.689Z,968.78
2018-05-07T05:50:35.688Z,968.76
2018-05-07T05:51:35.683Z,968.79
2018-05-07T05:52:35.711Z,968.77
2018-05-07T05:53:35.684Z,968.72
2018-05-07T05:54:35.682Z,968.75
2018-05-07T05:55:35.681Z,968.80
2018-05-07T05:56:35.680Z,968.83
2018-05-07T05:57:35.679Z,968.80
2018-05-07T05:58:35.678Z,968.84
2018-05-07T05:59:35.676Z,968.82
2018-05-07T06:00:35.677Z,968.82
2018-05-07T06:01:35.675Z,968.86
2018-05-07T06:02:35.675Z,968.87
2018-05-07T06:03:35.735Z,968.88
2018-05-07T06:04:35.673Z,968.88
2018-05-07T06:05:35.676Z,968.87
2018-05-07T06:06:35.673Z,968.90
2018-05-07T06:07:35.675Z,968.88
2018-05-07T06:08:36.462Z,968.91
2018-05-07T06:09:35.675Z,968.94
2018-05-07T06:10:35.674Z,968.93
2018-05-07T06:11:35.677Z,968.96
2018-05-07T06:12:35.681Z,968.98
2018-05-07T06:13:35.681Z,969.00
2018-05-07T06:14:35.708Z,969.05
2018-05-07T06:15:35.684Z,969.08
2018-05-07T06:16:35.689Z,969.03
2018-05-07T06:17:35.692Z,969.08
2018-05-07T06:18:35.693Z,969.11
2018-05-07T06:19:35.695Z,969.07
2018-05-07T06:20:35.699Z,969.05
2018-05-07T06:21:35.701Z,969.03
2018-05-07T06:22:35.709Z,969.09
2018-05-07T06:23:35.707Z,969.03
2018-05-07T06:24:35.713Z,969.03
2018-05-07T06:25:35.721Z,969.07
2018-05-07T06:26:35.722Z,969.05
2018-05-07T06:27:35.726Z,969.08
2018-05-07T06:28:35.736Z,969.08
2018-05-07T06:29:36.468Z,969.11
2018-05-07T06:30:35.739Z,969.07
2018-05-07T06:31:35.743Z,969.07
2018-05-07T06:32:35.750Z,969.07
2018-05-07T06:33:35.755Z,969.09
2018-05-07T06:34:35.759Z,969.11
2018-05-07T06:35:35.764Z,969.08
2018-05-07T06:36:35.770Z,969.10
2018-05-07T06:37:35.776Z,969.11
2018-05-07T06:38:35.781Z,969.08
2018-05-07T06:39:35.785Z,969.06
2018-05-07T06:40:35.792Z,969.08
2018-05-07T06:41:35.798Z,969.08
2018-05-07T06:42:35.803Z,969.09
2018-05-07T06:43:35.810Z,969.11
2018-05-07T06:44:35.815Z,969.10
2018-05-07T06:45:35.878Z,969.05
2018-05-07T06:46:35.828Z,969.15
2018-05-07T06:47:35.835Z,969.07
2018-05-07T06:48:35.839Z,969.09
2018-05-07T06:49:35.844Z,969.09
2018-05-07T06:50:35.850Z,969.11
2018-05-07T06:51:35.860Z,969.10
2018-05-07T06:52:35.900Z,969.11
2018-05-07T06:53:35.871Z,969.11
2018-05-07T06:54:35.877Z,969.10
2018-05-07T06:55:35.882Z,969.08
2018-05-07T06:56:35.891Z,969.11
2018-05-07T06:57:35.897Z,969.11
2018-05-07T06:58:35.901Z,969.15
2018-05-07T06:59:35.909Z,969.14
2018-05-07T07:00:35.915Z,969.15
2018-05-07T07:01:35.923Z,969.14
2018-05-07T07:02:35.942Z,969.12
2018-05-07T07:03:35.934Z,969.13
2018-05-07T07:04:35.948Z,969.15
2018-05-07T07:05:35.949Z,969.16
2018-05-07T07:06:35.955Z,969.13
2018-05-07T07:07:35.962Z,969.09
2018-05-07T07:08:36.077Z,969.09
2018-05-07T07:09:35.977Z,969.08
2018-05-07T07:10:35.982Z,969.08
2018-05-07T07:11:35.991Z,969.09
2018-05-07T07:12:36.004Z,969.07
2018-05-07T07:13:36.008Z,969.04
2018-05-07T07:14:36.016Z,969.01
2018-05-07T07:15:36.021Z,969.02
2018-05-07T07:16:36.030Z,969.00
2018-05-07T07:17:36.038Z,969.01
2018-05-07T07:18:36.045Z,968.98
2018-05-07T07:19:36.053Z,969.00
2018-05-07T07:20:36.059Z,969.00
2018-05-07T07:21:36.079Z,968.98
2018-05-07T07:22:36.076Z,968.98
2018-05-07T07:23:36.084Z,968.96
2018-05-07T07:24:36.090Z,968.98
2018-05-07T07:25:36.101Z,968.95
2018-05-07T07:26:36.110Z,968.94
2018-05-07T07:27:36.117Z,968.89
2018-05-07T07:28:36.124Z,968.88
2018-05-07T07:29:36.135Z,968.90
2018-05-07T07:30:36.140Z,968.95
2018-05-07T07:31:36.150Z,968.90
2018-05-07T07:32:36.158Z,968.95
2018-05-07T07:33:36.168Z,968.91
2018-05-07T07:34:36.174Z,968.92
2018-05-07T07:35:36.184Z,968.88
2018-05-07T07:36:36.193Z,968.89
2018-05-07T07:37:36.204Z,968.90
2018-05-07T07:38:36.209Z,968.88
2018-05-07T07:39:36.219Z,968.91
2018-05-07T07:40:36.228Z,968.90
2018-05-07T07:41:36.240Z,968.94
2018-05-07T07:42:36.247Z,968.91
2018-05-07T07:43:36.254Z,968.91
2018-05-07T07:44:36.263Z,968.92
2018-05-07T07:45:36.274Z,968.88
2018-05-07T07:46:36.281Z,968.94
2018-05-07T07:47:36.291Z,968.95
2018-05-07T07:48:36.301Z,968.94
2018-05-07T07:49:36.310Z,968.97
2018-05-07T07:50:36.320Z,968.95
2018-05-07T07:51:36.999Z,968.97
2018-05-07T07:52:36.339Z,968.96
2018-05-07T07:53:36.419Z,968.96
2018-05-07T07:54:36.361Z,968.99
2018-05-07T07:55:36.368Z,968.96
2018-05-07T07:56:36.377Z,968.93
2018-05-07T07:57:36.388Z,968.97
2018-05-07T07:58:36.398Z,968.96
2018-05-07T07:59:36.408Z,968.95
2018-05-07T08:00:36.418Z,969.00
2018-05-07T08:01:36.453Z,968.96
2018-05-07T08:02:36.435Z,968.96
2018-05-07T08:03:36.445Z,968.94
2018-05-07T08:04:36.457Z,968.91
2018-05-07T08:05:36.465Z,968.93
2018-05-07T08:06:36.475Z,968.90
2018-05-07T08:07:36.491Z,968.97
2018-05-07T08:08:36.495Z,968.93
2018-05-07T08:09:36.513Z,968.94
2018-05-07T08:10:36.515Z,968.86
2018-05-07T08:11:36.525Z,968.89
2018-05-07T08:12:36.535Z,968.87
2018-05-07T08:13:36.546Z,968.89
2018-05-07T08:14:36.555Z,968.83
2018-05-07T08:15:36.564Z,968.77
2018-05-07T08:16:36.575Z,968.78
2018-05-07T08:17:36.584Z,968.78
2018-05-07T08:18:36.594Z,968.80
2018-05-07T08:19:36.603Z,968.69
2018-05-07T08:20:36.613Z,968.72
2018-05-07T08:21:36.621Z,968.79
2018-05-07T08:22:36.638Z,968.70
2018-05-07T08:23:36.641Z,968.72
2018-05-07T08:24:36.651Z,968.74
2018-05-07T08:25:36.660Z,968.70
2018-05-07T08:26:36.665Z,968.67
2018-05-07T08:27:36.676Z,968.66
2018-05-07T08:28:36.688Z,968.63
2018-05-07T08:29:36.691Z,968.61
2018-05-07T08:30:36.709Z,968.66
2018-05-07T08:31:36.710Z,968.60
2018-05-07T08:32:36.714Z,968.63
2018-05-07T08:33:36.722Z,968.60
2018-05-07T08:34:36.734Z,968.59
2018-05-07T08:35:36.737Z,968.61
2018-05-07T08:36:36.766Z,968.63
2018-05-07T08:37:36.757Z,968.58
2018-05-07T08:38:36.758Z,968.57
2018-05-07T08:39:36.765Z,968.55
2018-05-07T08:40:36.774Z,968.56
2018-05-07T08:41:36.779Z,968.54
2018-05-07T08:42:36.787Z,968.49
2018-05-07T08:43:36.792Z,968.52
2018-05-07T08:44:36.800Z,968.53
2018-05-07T08:45:36.808Z,968.55
2018-05-07T08:46:36.814Z,968.56
2018-05-07T08:47:36.825Z,968.54
2018-05-07T08:48:36.827Z,968.49
2018-05-07T08:49:36.909Z,968.58
2018-05-07T08:50:36.845Z,968.60
2018-05-07T08:51:36.859Z,968.57
2018-05-07T08:52:36.858Z,968.55
2018-05-07T08:53:37.516Z,968.66
2018-05-07T08:54:36.866Z,968.63
2018-05-07T08:55:36.874Z,968.66
2018-05-07T08:56:36.882Z,968.68
2018-05-07T08:57:36.894Z,968.67
2018-05-07T08:58:36.893Z,968.67
2018-05-07T08:59:36.899Z,968.65
2018-05-07T09:00:36.930Z,968.72
2018-05-07T09:01:37.514Z,968.67
2018-05-07T09:02:36.920Z,968.64
2018-05-07T09:03:36.926Z,968.61
2018-05-07T09:04:36.932Z,968.64
2018-05-07T09:05:36.938Z,968.65
2018-05-07T09:06:36.945Z,968.68
2018-05-07T09:07:36.977Z,968.67
2018-05-07T09:08:36.961Z,968.65
2018-05-07T09:09:36.969Z,968.68
2018-05-07T09:10:36.973Z,968.65
2018-05-07T09:11:36.978Z,968.64
2018-05-07T09:12:36.985Z,968.62
2018-05-07T09:13:37.063Z,968.64
2018-05-07T09:14:37.060Z,968.61
2018-05-07T09:15:37.003Z,968.62
2018-05-07T09:16:37.011Z,968.58
2018-05-07T09:17:37.016Z,968.56
2018-05-07T09:18:37.022Z,968.58
2018-05-07T09:19:37.031Z,968.57
2018-05-07T09:20:37.042Z,968.53
2018-05-07T09:21:37.520Z,968.57
2018-05-07T09:22:37.048Z,968.55
2018-05-07T09:23:38.020Z,968.53
2018-05-07T09:24:37.060Z,968.49
2018-05-07T09:25:37.094Z,968.47
2018-05-07T09:26:37.079Z,968.44
2018-05-07T09:27:37.081Z,968.42
2018-05-07T09:28:37.088Z,968.41
2018-05-07T09:29:37.101Z,968.41
2018-05-07T09:30:38.022Z,968.37
2018-05-07T09:31:37.186Z,968.36
2018-05-07T09:32:37.115Z,968.36
2018-05-07T09:33:37.121Z,968.41
2018-05-07T09:34:37.142Z,968.37
2018-05-07T09:35:37.132Z,968.36
2018-05-07T09:36:37.147Z,968.39
2018-05-07T09:37:37.146Z,968.38
2018-05-07T09:38:37.151Z,968.37
2018-05-07T09:39:37.159Z,968.38
2018-05-07T09:40:37.166Z,968.38
2018-05-07T09:41:37.171Z,968.37
2018-05-07T09:42:37.178Z,968.30
2018-05-07T09:43:37.184Z,968.30
2018-05-07T09:44:37.192Z,968.34
2018-05-07T09:45:37.198Z,968.33
2018-05-07T09:46:37.203Z,968.30
2018-05-07T09:47:37.212Z,968.36
2018-05-07T09:48:37.219Z,968.30
2018-05-07T09:49:37.225Z,968.27
2018-05-07T09:50:38.030Z,968.27
2018-05-07T09:51:37.237Z,968.25
2018-05-07T09:52:37.266Z,968.19
2018-05-07T09:53:37.265Z,968.22
2018-05-07T09:54:37.257Z,968.23
2018-05-07T09:55:37.278Z,968.21
2018-05-07T09:56:37.270Z,968.20
2018-05-07T09:57:37.279Z,968.20
2018-05-07T09:58:37.282Z,968.23
2018-05-07T09:59:37.289Z,968.18
2018-05-07T10:00:37.299Z,968.23
2018-05-07T10:01:37.303Z,968.25
2018-05-07T10:02:37.310Z,968.23
2018-05-07T10:03:37.318Z,968.18
2018-05-07T10:04:37.322Z,968.17
2018-05-07T10:05:37.330Z,968.20
2018-05-07T10:06:37.336Z,968.21
2018-05-07T10:07:37.340Z,968.15
2018-05-07T10:08:37.348Z,968.22
2018-05-07T10:09:37.355Z,968.19
2018-05-07T10:10:37.363Z,968.20
2018-05-07T10:11:37.368Z,968.21
2018-05-07T10:12:37.375Z,968.22
2018-05-07T10:13:37.381Z,968.19
2018-05-07T10:14:37.391Z,968.12
2018-05-07T10:15:37.393Z,968.14
2018-05-07T10:16:37.400Z,968.13
2018-05-07T10:17:37.407Z,968.12
2018-05-07T10:18:37.414Z,968.20
2018-05-07T10:19:37.421Z,968.16
2018-05-07T10:20:37.452Z,968.15
2018-05-07T10:21:38.038Z,968.12
2018-05-07T10:22:37.444Z,968.13
2018-05-07T10:23:37.474Z,968.00
2018-05-07T10:24:37.458Z,968.10
2018-05-07T10:25:37.460Z,968.03
2018-05-07T10:26:37.466Z,968.10
2018-05-07T10:27:37.476Z,968.09
2018-05-07T10:28:37.478Z,968.09
2018-05-07T10:29:37.490Z,968.04
2018-05-07T10:30:37.526Z,968.05
2018-05-07T10:31:37.499Z,968.05
2018-05-07T10:32:37.506Z,968.05
2018-05-07T10:33:37.513Z,968.07
2018-05-07T10:34:37.556Z,968.02
2018-05-07T10:35:37.525Z,968.16
2018-05-07T10:36:37.532Z,968.06
2018-05-07T10:37:37.538Z,968.04
2018-05-07T10:38:37.564Z,968.03
2018-05-07T10:39:37.551Z,968.03
2018-05-07T10:40:37.558Z,968.01
2018-05-07T10:41:37.563Z,967.95
2018-05-07T10:42:37.572Z,967.95
2018-05-07T10:43:37.577Z,967.96
2018-05-07T10:44:37.583Z,968.00
2018-05-07T10:45:37.591Z,967.98
2018-05-07T10:46:37.597Z,967.93
2018-05-07T10:47:37.603Z,967.93
2018-05-07T10:48:37.614Z,967.92
2018-05-07T10:49:37.618Z,967.87
2018-05-07T10:50:37.621Z,967.87
2018-05-07T10:51:37.628Z,967.90
2018-05-07T10:52:37.657Z,967.89
2018-05-07T10:53:37.642Z,967.84
2018-05-07T10:54:37.657Z,967.79
2018-05-07T10:55:37.657Z,967.76
2018-05-07T10:56:37.663Z,967.74
2018-05-07T10:57:37.709Z,967.75
2018-05-07T10:58:37.677Z,967.64
2018-05-07T10:59:37.681Z,967.64
2018-05-07T11:00:37.688Z,967.70
2018-05-07T11:01:37.749Z,967.67
2018-05-07T11:02:37.703Z,967.61
2018-05-07T11:03:37.708Z,967.64
2018-05-07T11:04:37.714Z,967.61
2018-05-07T11:05:37.725Z,967.59
2018-05-07T11:06:37.732Z,967.57
2018-05-07T11:07:37.739Z,967.56
2018-05-07T11:08:37.742Z,967.56
2018-05-07T11:09:37.750Z,967.57
2018-05-07T11:10:37.754Z,967.48
2018-05-07T11:11:37.764Z,967.51
2018-05-07T11:12:37.769Z,967.54
2018-05-07T11:13:37.845Z,967.52
2018-05-07T11:14:37.783Z,967.57
2018-05-07T11:15:37.789Z,967.58
2018-05-07T11:16:37.798Z,967.58
2018-05-07T11:17:38.551Z,967.57
2018-05-07T11:18:37.811Z,967.55
2018-05-07T11:19:37.818Z,967.48
2018-05-07T11:20:37.824Z,967.42
2018-05-07T11:21:37.831Z,967.50
2018-05-07T11:22:37.839Z,967.42
2018-05-07T11:23:37.845Z,967.45
2018-05-07T11:24:37.852Z,967.42
2018-05-07T11:25:37.862Z,967.41
2018-05-07T11:26:37.864Z,967.45
2018-05-07T11:27:37.871Z,967.38
2018-05-07T11:28:37.880Z,967.37
2018-05-07T11:29:37.886Z,967.38
2018-05-07T11:30:37.892Z,967.40
2018-05-07T11:31:37.901Z,967.39
2018-05-07T11:32:38.557Z,967.34
2018-05-07T11:33:37.916Z,967.34
2018-05-07T11:34:37.921Z,967.30
2018-05-07T11:35:37.928Z,967.34
2018-05-07T11:36:37.936Z,967.35
2018-05-07T11:37:37.942Z,967.32
2018-05-07T11:38:37.947Z,967.31
2018-05-07T11:39:37.957Z,967.27
2018-05-07T11:40:37.962Z,967.15
2018-05-07T11:41:37.971Z,967.27
2018-05-07T11:42:37.976Z,967.21
2018-05-07T11:43:37.987Z,967.18
2018-05-07T11:44:37.995Z,967.25
2018-05-07T11:45:37.998Z,967.27
2018-05-07T11:46:38.008Z,967.26
2018-05-07T11:47:38.123Z,967.24
2018-05-07T11:48:38.021Z,967.22
2018-05-07T11:49:38.027Z,967.19
2018-05-07T11:50:38.033Z,967.16
2018-05-07T11:51:38.041Z,967.12
2018-05-07T11:52:38.049Z,967.12
2018-05-07T11:53:38.056Z,967.11
2018-05-07T11:54:38.064Z,967.06
2018-05-07T11:55:38.070Z,967.05
2018-05-07T11:56:38.084Z,967.01
2018-05-07T11:57:38.085Z,967.01
2018-05-07T11:58:38.092Z,967.03
2018-05-07T11:59:38.100Z,967.00
2018-05-07T12:00:38.106Z,966.97
2018-05-07T12:01:39.065Z,966.97
2018-05-07T12:02:38.188Z,966.97
2018-05-07T12:03:38.132Z,967.01
2018-05-07T12:04:38.138Z,967.04
2018-05-07T12:05:38.148Z,967.01
2018-05-07T12:06:38.150Z,967.04
2018-05-07T12:07:38.159Z,967.03
2018-05-07T12:08:38.166Z,966.95
2018-05-07T12:09:38.170Z,966.96
2018-05-07T12:10:38.180Z,966.93
2018-05-07T12:11:38.189Z,966.98
2018-05-07T12:12:38.198Z,966.92
2018-05-07T12:13:38.205Z,966.90
2018-05-07T12:14:38.208Z,966.92
2018-05-07T12:15:38.218Z,966.88
2018-05-07T12:16:38.225Z,966.90
2018-05-07T12:17:38.233Z,966.88
2018-05-07T12:18:38.239Z,966.88
2018-05-07T12:19:38.245Z,966.87
2018-05-07T12:20:38.254Z,966.84
2018-05-07T12:21:38.260Z,966.89
2018-05-07T12:22:38.267Z,966.85
2018-05-07T12:23:38.277Z,966.84
2018-05-07T12:24:38.285Z,966.87
2018-05-07T12:25:38.290Z,966.86
2018-05-07T12:26:38.297Z,966.86
2018-05-07T12:27:38.303Z,966.90
2018-05-07T12:28:38.313Z,966.87